Time;durP1;ratioP1;P1;durP2;ratioP2;P2;SDS_P1;SDS_P2;PMS_P1;PMS_P2;Temp;Humidity;BMP_temperature;BMP_pressure;BME280_temperature;BME280_humidity;BME280_pressure;Samples;Min_cycle;Max_cycle;Signal;HPM_P1;HPM_P2
2021/07/19 00:01:54;;;;;;;17.42;13.00;;;18.10;99.90;;;;;;4971572;28;20034;-69
2021/07/19 00:04:20;;;;;;;15.80;13.02;;;18.10;99.90;;;;;;4972686;28;20370;-69
2021/07/19 00:06:46;;;;;;;17.70;12.82;;;18.10;99.90;;;;;;4973136;28;20089;-69
2021/07/19 00:09:12;;;;;;;24.20;12.40;;;18.10;99.90;;;;;;4973047;28;20034;-69
2021/07/19 00:11:39;;;;;;;20.65;14.05;;;18.00;99.90;;;;;;4973473;28;20023;-69
2021/07/19 00:14:05;;;;;;;17.75;12.88;;;17.90;99.90;;;;;;4973170;28;20481;-69
2021/07/19 00:16:31;;;;;;;17.02;13.45;;;17.80;99.90;;;;;;4982770;28;20057;-68
2021/07/19 00:18:56;;;;;;;20.98;13.40;;;17.80;99.90;;;;;;4975371;28;20043;-69
2021/07/19 00:21:23;;;;;;;20.50;14.15;;;17.80;99.90;;;;;;4973295;28;20381;-70
2021/07/19 00:23:48;;;;;;;28.63;15.00;;;17.70;99.90;;;;;;4973259;28;20126;-70
2021/07/19 00:26:14;;;;;;;19.08;14.75;;;17.70;99.90;;;;;;4972940;28;20034;-70
2021/07/19 00:28:40;;;;;;;23.38;15.98;;;17.60;99.90;;;;;;4974900;28;20026;-70
2021/07/19 00:31:06;;;;;;;26.83;15.75;;;17.60;99.90;;;;;;4984067;28;20515;-70
2021/07/19 00:33:31;;;;;;;22.05;15.00;;;17.50;99.90;;;;;;4993143;28;20089;-69
2021/07/19 00:35:57;;;;;;;22.38;15.80;;;17.50;99.90;;;;;;4992404;28;20034;-69
2021/07/19 00:38:22;;;;;;;24.48;16.83;;;17.40;99.90;;;;;;4992831;28;20504;-70
2021/07/19 00:40:48;;;;;;;21.63;16.42;;;17.40;99.90;;;;;;4992532;28;20461;-69
2021/07/19 00:43:14;;;;;;;20.13;15.10;;;17.40;99.90;;;;;;4992356;28;20027;-69
2021/07/19 00:45:40;;;;;;;20.38;14.85;;;17.40;99.90;;;;;;4991558;28;20022;-69
2021/07/19 00:48:06;;;;;;;16.80;13.68;;;17.40;99.90;;;;;;4992084;28;20030;-69
2021/07/19 00:50:35;;;;;;;19.55;15.18;;;17.30;99.90;;;;;;4991883;28;20097;-69
2021/07/19 00:53:02;;;;;;;17.40;11.23;;;17.30;99.90;;;;;;4992200;28;20031;-69
2021/07/19 00:55:44;;;;;;;12.50;9.13;;;17.20;99.90;;;;;;4991663;28;20022;-69
2021/07/19 00:58:12;;;;;;;21.83;15.52;;;17.20;99.90;;;;;;4991889;28;20109;-69
2021/07/19 01:00:44;;;;;;;21.67;15.20;;;17.20;99.90;;;;;;4991642;28;20023;-69
2021/07/19 01:03:10;;;;;;;21.52;14.88;;;17.20;99.90;;;;;;4992131;28;20033;-69
2021/07/19 01:05:38;;;;;;;25.55;15.55;;;17.10;99.90;;;;;;4991482;28;20088;-69
2021/07/19 01:08:07;;;;;;;24.48;16.67;;;17.10;99.90;;;;;;4994350;28;20069;-69
2021/07/19 01:10:34;;;;;;;21.00;16.30;;;17.10;99.90;;;;;;4994307;28;20041;-69
2021/07/19 01:13:00;;;;;;;21.63;14.20;;;17.00;99.90;;;;;;4995651;28;20391;-69
2021/07/19 01:15:29;;;;;;;16.50;12.95;;;16.90;99.90;;;;;;4977029;28;20022;-69
2021/07/19 01:17:55;;;;;;;19.08;12.60;;;16.90;99.90;;;;;;4995575;28;20485;-69
2021/07/19 01:20:28;;;;;;;13.25;10.57;;;16.90;99.90;;;;;;4995403;28;20117;-69
2021/07/19 01:23:11;;;;;;;13.85;10.77;;;16.80;99.90;;;;;;4995654;28;20033;-69
2021/07/19 01:25:45;;;;;;;15.55;11.27;;;16.80;99.90;;;;;;4994901;28;20026;-70
2021/07/19 01:28:50;;;;;;;17.55;13.65;;;16.80;99.90;;;;;;4995309;28;20026;-69
2021/07/19 01:31:17;;;;;;;20.13;14.35;;;16.80;99.90;;;;;;4994410;28;20046;-69
2021/07/19 01:33:46;;;;;;;18.80;12.20;;;16.70;99.90;;;;;;4995252;28;20030;-69
2021/07/19 01:36:15;;;;;;;17.35;13.02;;;16.70;99.90;;;;;;4994577;28;20026;-69
2021/07/19 01:38:42;;;;;;;20.15;14.55;;;16.70;99.90;;;;;;4995626;28;20030;-68
2021/07/19 01:41:10;;;;;;;19.88;13.98;;;16.70;99.90;;;;;;5000403;28;20041;-68
2021/07/19 01:43:35;;;;;;;19.67;15.40;;;16.60;99.90;;;;;;5009514;28;20019;-68
2021/07/19 01:46:03;;;;;;;20.33;14.50;;;16.70;99.90;;;;;;5013118;28;20049;-68
2021/07/19 01:48:31;;;;;;;23.25;15.05;;;16.70;99.90;;;;;;4977983;28;20018;-69
2021/07/19 01:50:59;;;;;;;21.92;14.50;;;16.70;99.90;;;;;;4975506;28;20035;-69
2021/07/19 01:53:29;;;;;;;19.15;14.32;;;16.50;99.90;;;;;;4975669;28;20486;-69
2021/07/19 01:55:56;;;;;;;19.58;13.85;;;16.50;99.90;;;;;;4974885;28;20026;-69
2021/07/19 01:58:23;;;;;;;18.65;13.27;;;16.50;99.90;;;;;;4975319;28;20026;-68
2021/07/19 02:00:49;;;;;;;21.63;13.98;;;16.40;99.90;;;;;;4976713;28;20082;-68
2021/07/19 02:03:15;;;;;;;17.42;13.18;;;16.40;99.90;;;;;;4994638;28;20030;-68
2021/07/19 02:05:43;;;;;;;20.90;13.35;;;16.40;99.90;;;;;;4994283;28;20378;-70
2021/07/19 02:08:14;;;;;;;19.08;12.23;;;16.40;99.90;;;;;;4994640;28;20417;-70
2021/07/19 02:10:40;;;;;;;18.58;12.27;;;16.40;99.90;;;;;;4994706;28;20026;-69
2021/07/19 02:13:06;;;;;;;16.33;11.95;;;16.20;99.90;;;;;;4994523;28;20033;-69
2021/07/19 02:15:33;;;;;;;17.30;12.07;;;16.20;99.90;;;;;;4993087;28;20109;-70
2021/07/19 02:18:01;;;;;;;16.42;11.25;;;16.20;99.90;;;;;;4994396;28;20042;-70
2021/07/19 02:20:28;;;;;;;19.77;11.30;;;16.10;99.90;;;;;;4993504;28;20041;-69
2021/07/19 02:22:55;;;;;;;19.08;11.50;;;16.20;99.90;;;;;;4994480;28;20019;-70
2021/07/19 02:25:22;;;;;;;14.77;10.15;;;16.20;99.90;;;;;;4993851;28;20019;-70
2021/07/19 02:27:50;;;;;;;14.98;11.68;;;16.20;99.90;;;;;;4976935;28;20072;-70
2021/07/19 02:30:19;;;;;;;16.05;10.50;;;16.30;99.90;;;;;;4993753;28;20037;-70
2021/07/19 02:32:50;;;;;;;17.05;11.95;;;16.20;99.90;;;;;;4994133;28;20035;-70
2021/07/19 02:35:17;;;;;;;18.48;13.13;;;16.20;99.90;;;;;;4993562;28;20026;-68
2021/07/19 02:37:45;;;;;;;17.02;12.43;;;16.20;99.90;;;;;;4994025;28;20040;-70
2021/07/19 02:40:13;;;;;;;17.67;12.10;;;16.20;99.90;;;;;;4993914;28;20101;-70
2021/07/19 02:42:44;;;;;;;17.38;11.77;;;16.10;99.90;;;;;;4994005;28;20030;-71
2021/07/19 02:45:16;;;;;;;19.90;11.18;;;16.00;99.90;;;;;;4993650;28;20026;-70
2021/07/19 02:47:48;;;;;;;17.63;11.95;;;16.00;99.90;;;;;;4994311;28;20404;-70
2021/07/19 02:50:16;;;;;;;19.67;11.57;;;16.00;99.90;;;;;;5089778;23;20043;-70
2021/07/19 02:52:45;;;;;;;20.20;12.48;;;16.00;99.90;;;;;;4968053;28;20019;-70
2021/07/19 02:55:13;;;;;;;22.90;13.63;;;15.90;99.90;;;;;;4954275;29;20444;-70
2021/07/19 02:57:39;;;;;;;16.92;13.00;;;15.90;99.90;;;;;;4937889;29;20035;-70
2021/07/19 03:00:10;;;;;;;15.18;10.50;;;15.90;99.90;;;;;;4954835;28;20030;-70
2021/07/19 03:02:40;;;;;;;23.48;13.48;;;15.80;99.90;;;;;;4956683;29;20035;-70
2021/07/19 03:05:09;;;;;;;17.17;12.25;;;15.80;99.90;;;;;;4954164;29;20042;-70
2021/07/19 03:07:37;;;;;;;17.90;11.32;;;15.80;99.90;;;;;;4937366;29;20047;-70
2021/07/19 03:10:04;;;;;;;18.95;12.18;;;15.80;99.90;;;;;;4954634;28;20042;-70
2021/07/19 03:12:35;;;;;;;17.42;11.93;;;15.80;99.90;;;;;;4954809;29;20824;-71
2021/07/19 03:15:01;;;;;;;14.13;10.75;;;15.80;99.90;;;;;;4953992;29;20027;-71
2021/07/19 03:17:27;;;;;;;14.63;10.35;;;15.70;99.90;;;;;;4937429;29;20024;-71
2021/07/19 03:19:56;;;;;;;18.92;11.68;;;15.70;99.90;;;;;;4959586;28;20142;-70
2021/07/19 03:22:24;;;;;;;18.13;12.65;;;15.70;99.90;;;;;;4973516;28;20023;-71
2021/07/19 03:24:52;;;;;;;19.10;12.13;;;15.70;99.90;;;;;;4973196;28;20019;-71
2021/07/19 03:27:22;;;;;;;20.10;13.73;;;15.70;99.90;;;;;;4973748;28;20030;-71
2021/07/19 03:29:49;;;;;;;19.83;13.65;;;15.60;99.90;;;;;;4973489;28;20101;-70
2021/07/19 03:32:17;;;;;;;18.30;13.05;;;15.70;99.90;;;;;;4973007;28;20038;-71
2021/07/19 03:34:44;;;;;;;16.55;12.60;;;15.60;99.90;;;;;;4973083;28;20114;-71
2021/07/19 03:37:10;;;;;;;18.58;13.00;;;15.60;99.90;;;;;;4973246;28;20038;-71
2021/07/19 03:39:40;;;;;;;20.33;13.93;;;15.60;99.90;;;;;;4973164;28;20035;-71
2021/07/19 03:42:07;;;;;;;15.73;11.57;;;15.60;99.90;;;;;;4973446;28;20481;-71
2021/07/19 03:44:35;;;;;;;17.48;12.82;;;15.50;99.90;;;;;;4972712;28;20493;-71
2021/07/19 03:47:01;;;;;;;18.98;13.40;;;15.60;99.90;;;;;;4972829;28;20031;-71
2021/07/19 03:49:30;;;;;;;18.98;13.45;;;15.60;99.90;;;;;;4967569;28;20048;-71
2021/07/19 03:51:56;;;;;;;17.35;13.05;;;15.70;99.90;;;;;;4953463;28;20051;-71
2021/07/19 03:54:22;;;;;;;20.40;13.43;;;15.60;99.90;;;;;;4953996;29;20166;-70
2021/07/19 03:56:49;;;;;;;19.55;12.65;;;15.50;99.90;;;;;;4956589;29;20421;-70
2021/07/19 03:59:19;;;;;;;17.98;13.80;;;15.50;99.90;;;;;;4953905;29;20023;-70
2021/07/19 04:01:47;;;;;;;22.13;13.18;;;15.60;99.90;;;;;;4954144;28;20397;-71
2021/07/19 04:04:18;;;;;;;21.23;14.18;;;15.60;99.90;;;;;;4950860;28;20019;-70
2021/07/19 04:06:45;;;;;;;18.05;12.45;;;15.50;99.90;;;;;;4971275;28;20029;-70
2021/07/19 04:09:11;;;;;;;22.30;12.02;;;15.50;99.90;;;;;;4972188;28;20183;-70
2021/07/19 04:11:39;;;;;;;18.02;11.88;;;15.50;99.90;;;;;;4972756;28;20042;-70
2021/07/19 04:14:10;;;;;;;15.43;11.23;;;15.50;99.90;;;;;;4985408;28;20038;-69
2021/07/19 04:16:36;;;;;;;14.60;10.68;;;15.50;99.90;;;;;;4987525;28;20043;-69
2021/07/19 04:19:02;;;;;;;13.35;10.38;;;15.50;99.90;;;;;;4973004;28;20037;-70
2021/07/19 04:21:30;;;;;;;16.15;10.75;;;15.50;99.90;;;;;;4972348;28;20034;-70
2021/07/19 04:23:56;;;;;;;12.93;10.68;;;15.50;99.90;;;;;;4972460;28;20019;-70
2021/07/19 04:26:22;;;;;;;16.80;10.98;;;15.60;99.90;;;;;;4971330;28;20086;-70
2021/07/19 04:28:48;;;;;;;15.85;10.63;;;15.60;99.90;;;;;;4972673;28;20377;-69
2021/07/19 04:31:16;;;;;;;14.65;11.07;;;15.60;99.90;;;;;;4972650;28;20093;-70
2021/07/19 04:33:45;;;;;;;12.77;10.43;;;15.60;99.90;;;;;;4971959;28;20027;-70
2021/07/19 04:36:11;;;;;;;15.40;11.40;;;15.70;99.90;;;;;;4971658;28;20485;-70
2021/07/19 04:38:37;;;;;;;14.98;11.60;;;15.80;99.90;;;;;;4972586;28;20042;-71
2021/07/19 04:41:03;;;;;;;20.52;13.98;;;15.90;99.90;;;;;;4972251;28;20073;-70
2021/07/19 04:43:29;;;;;;;19.02;14.15;;;15.90;99.90;;;;;;4971872;28;20026;-70
2021/07/19 04:45:55;;;;;;;17.75;13.75;;;15.90;99.90;;;;;;4971028;28;20023;-70
2021/07/19 04:48:21;;;;;;;22.35;13.00;;;15.90;99.90;;;;;;4971242;28;20082;-71
2021/07/19 04:50:48;;;;;;;19.52;13.85;;;15.90;99.90;;;;;;4972225;28;20514;-70
2021/07/19 04:53:14;;;;;;;18.90;14.05;;;15.80;99.90;;;;;;4972315;28;20400;-70
2021/07/19 04:55:46;;;;;;;18.88;14.02;;;15.90;99.90;;;;;;4971646;28;20022;-71
2021/07/19 04:58:15;;;;;;;18.83;13.68;;;15.90;99.90;;;;;;4972183;28;21902;-71
2021/07/19 05:00:43;;;;;;;23.65;14.32;;;16.00;99.90;;;;;;4952748;28;20114;-70
2021/07/19 05:03:09;;;;;;;18.90;13.65;;;16.10;99.90;;;;;;4952838;29;20043;-71
2021/07/19 05:05:36;;;;;;;19.25;14.25;;;16.20;99.90;;;;;;4968707;28;20525;-71
2021/07/19 05:08:03;;;;;;;19.23;12.82;;;16.20;99.90;;;;;;4972267;28;20038;-70
2021/07/19 05:10:29;;;;;;;21.23;14.57;;;16.20;99.90;;;;;;4972153;28;20469;-71
2021/07/19 05:12:56;;;;;;;21.23;15.00;;;16.30;99.90;;;;;;4972458;28;20082;-69
2021/07/19 05:15:23;;;;;;;17.65;13.77;;;16.30;99.90;;;;;;4970586;28;20015;-69
2021/07/19 05:17:48;;;;;;;25.10;15.48;;;16.40;99.90;;;;;;4972284;28;20074;-71
2021/07/19 05:20:22;;;;;;;16.75;11.65;;;16.30;99.90;;;;;;4972219;28;20027;-69
2021/07/19 05:22:53;;;;;;;17.27;12.65;;;16.30;99.90;;;;;;4972158;28;20030;-69
2021/07/19 05:25:24;;;;;;;14.10;11.73;;;16.40;99.90;;;;;;4971393;28;20027;-70
2021/07/19 05:28:02;;;;;;;17.95;11.57;;;16.50;99.90;;;;;;4971930;28;20461;-71
2021/07/19 05:30:28;;;;;;;17.60;11.82;;;16.60;99.90;;;;;;4971892;28;20034;-71
2021/07/19 05:32:55;;;;;;;18.83;10.77;;;16.60;99.90;;;;;;4972264;28;20054;-70
2021/07/19 05:35:22;;;;;;;15.38;11.90;;;16.70;99.90;;;;;;4971266;28;20489;-68
2021/07/19 05:37:48;;;;;;;18.77;11.02;;;16.80;99.90;;;;;;4971708;28;20120;-70
2021/07/19 05:40:15;;;;;;;16.40;11.35;;;16.80;99.90;;;;;;4973804;28;20544;-69
2021/07/19 05:42:41;;;;;;;15.07;10.75;;;16.90;99.90;;;;;;4954957;28;20038;-69
2021/07/19 05:45:12;;;;;;;15.40;11.13;;;17.00;99.90;;;;;;4971004;28;20027;-68
2021/07/19 05:47:38;;;;;;;13.90;10.27;;;17.10;99.90;;;;;;4971135;28;20026;-69
2021/07/19 05:50:06;;;;;;;17.67;10.73;;;17.10;99.90;;;;;;4959280;28;20030;-70
2021/07/19 05:52:32;;;;;;;13.88;9.77;;;17.10;99.90;;;;;;4971540;28;20027;-69
2021/07/19 05:54:58;;;;;;;12.10;9.60;;;17.20;99.90;;;;;;4965760;28;20031;-68
2021/07/19 05:57:27;;;;;;;12.20;8.40;;;17.10;99.90;;;;;;4974536;28;20038;-69
2021/07/19 05:59:56;;;;;;;15.38;9.68;;;17.20;99.90;;;;;;4976657;28;20066;-69
2021/07/19 06:02:26;;;;;;;11.05;8.57;;;17.10;99.90;;;;;;4976794;28;20019;-68
2021/07/19 06:04:52;;;;;;;10.40;7.43;;;17.30;99.90;;;;;;4974218;28;20033;-68
2021/07/19 06:07:18;;;;;;;10.07;7.65;;;17.30;99.90;;;;;;4972741;28;20489;-68
2021/07/19 06:09:44;;;;;;;16.67;8.18;;;17.30;99.90;;;;;;4956694;28;20065;-67
2021/07/19 06:12:16;;;;;;;11.50;7.90;;;17.40;99.90;;;;;;4961040;28;20073;-68
2021/07/19 06:14:42;;;;;;;14.32;8.25;;;17.50;99.90;;;;;;4974416;28;20037;-69
2021/07/19 06:17:08;;;;;;;14.02;7.55;;;17.60;99.90;;;;;;4974879;28;20046;-68
2021/07/19 06:19:34;;;;;;;12.77;7.75;;;17.70;99.90;;;;;;4974324;28;20031;-69
2021/07/19 06:22:00;;;;;;;10.40;7.93;;;17.70;99.90;;;;;;4975256;28;20034;-69
2021/07/19 06:24:26;;;;;;;12.18;6.65;;;17.70;99.90;;;;;;4975552;28;20023;-70
2021/07/19 06:26:52;;;;;;;10.18;6.70;;;17.70;99.90;;;;;;4975549;28;20025;-70
2021/07/19 06:29:17;;;;;;;14.77;6.93;;;17.80;99.90;;;;;;4957984;28;20393;-69
2021/07/19 06:31:43;;;;;;;10.27;6.68;;;18.10;99.90;;;;;;4974871;28;20041;-70
2021/07/19 06:34:09;;;;;;;9.20;6.97;;;18.10;99.90;;;;;;4975210;28;20521;-69
2021/07/19 06:36:36;;;;;;;10.57;6.40;;;18.10;99.90;;;;;;4975230;28;20054;-69
2021/07/19 06:39:04;;;;;;;8.65;5.95;;;18.20;99.90;;;;;;4975036;28;20576;-69
2021/07/19 06:41:30;;;;;;;10.75;6.75;;;18.30;99.90;;;;;;4975285;28;20019;-70
2021/07/19 06:43:55;;;;;;;10.98;7.45;;;18.40;99.90;;;;;;4975050;28;20453;-70
2021/07/19 06:46:21;;;;;;;9.25;6.68;;;18.60;99.90;;;;;;4973803;28;20074;-70
2021/07/19 06:48:47;;;;;;;11.88;8.02;;;18.60;99.90;;;;;;4974396;28;20130;-69
2021/07/19 06:51:12;;;;;;;15.10;8.27;;;18.70;99.90;;;;;;4974262;28;20042;-70
2021/07/19 06:53:38;;;;;;;11.52;7.70;;;18.90;99.90;;;;;;4974547;28;20055;-70
2021/07/19 06:56:04;;;;;;;20.30;8.32;;;18.80;99.90;;;;;;4972596;28;20058;-70
2021/07/19 06:58:30;;;;;;;13.25;7.18;;;19.00;99.90;;;;;;4974317;28;20489;-69
2021/07/19 07:00:55;;;;;;;14.70;7.47;;;19.00;99.90;;;;;;4974093;28;20023;-70
2021/07/19 07:03:21;;;;;;;14.60;6.90;;;19.10;99.90;;;;;;4956654;28;20019;-70
2021/07/19 07:05:46;;;;;;;11.43;7.13;;;19.30;99.90;;;;;;4972741;28;20098;-70
2021/07/19 07:08:12;;;;;;;10.70;6.82;;;19.50;99.90;;;;;;4974238;28;20026;-70
2021/07/19 07:10:38;;;;;;;8.93;7.13;;;19.60;99.90;;;;;;4974025;28;20023;-70
2021/07/19 07:13:09;;;;;;;13.70;7.65;;;19.90;99.90;;;;;;4972541;28;20038;-69
2021/07/19 07:15:36;;;;;;;8.07;6.45;;;19.90;99.90;;;;;;4973314;28;20082;-70
2021/07/19 07:18:07;;;;;;;9.82;6.85;;;20.00;99.90;;;;;;4973757;28;20091;-70
2021/07/19 07:20:32;;;;;;;9.50;6.45;;;19.90;99.90;;;;;;4973213;28;20046;-70
2021/07/19 07:22:58;;;;;;;9.50;6.43;;;20.10;99.90;;;;;;4974316;28;20027;-71
2021/07/19 07:25:24;;;;;;;13.13;6.65;;;20.20;99.90;;;;;;4972887;28;20585;-69
2021/07/19 07:27:50;;;;;;;10.27;6.57;;;20.40;99.90;;;;;;4952480;28;20030;-69
2021/07/19 07:30:16;;;;;;;15.02;6.85;;;20.60;99.90;;;;;;4973798;28;20115;-69
2021/07/19 07:32:42;;;;;;;6.93;6.15;;;20.50;99.90;;;;;;4973905;28;20058;-69
2021/07/19 07:35:09;;;;;;;9.65;6.35;;;20.70;99.90;;;;;;4972710;28;20035;-68
2021/07/19 07:37:39;;;;;;;5.97;5.10;;;20.80;99.90;;;;;;4973427;28;20023;-69
2021/07/19 07:40:06;;;;;;;9.05;5.72;;;21.00;99.90;;;;;;4973941;28;20370;-69
2021/07/19 07:42:32;;;;;;;7.57;5.70;;;21.20;99.90;;;;;;4973256;28;20512;-69
2021/07/19 07:44:58;;;;;;;7.38;4.90;;;21.40;99.90;;;;;;4972685;28;20035;-68
2021/07/19 07:47:25;;;;;;;5.13;4.60;;;21.60;99.90;;;;;;4973110;28;20048;-68
2021/07/19 07:49:51;;;;;;;4.80;4.07;;;21.80;99.90;;;;;;4972591;28;20486;-68
2021/07/19 07:52:18;;;;;;;10.95;5.03;;;21.90;99.90;;;;;;4972632;28;20038;-68
2021/07/19 07:54:43;;;;;;;24.80;5.93;;;22.00;99.90;;;;;;4972549;28;20030;-69
2021/07/19 07:57:09;;;;;;;16.23;4.70;;;22.10;99.90;;;;;;4973566;28;20027;-69
2021/07/19 07:59:35;;;;;;;9.52;4.82;;;22.20;99.90;;;;;;4972867;28;20122;-70
2021/07/19 08:02:01;;;;;;;9.25;4.35;;;22.20;99.90;;;;;;4973131;28;20158;-69
2021/07/19 08:04:29;;;;;;;6.13;4.80;;;22.10;99.90;;;;;;4972072;28;20114;-69
2021/07/19 08:06:59;;;;;;;5.68;4.35;;;22.20;99.90;;;;;;4979343;28;20030;-70
2021/07/19 08:09:25;;;;;;;4.30;4.00;;;22.40;99.90;;;;;;4982097;28;20034;-70
2021/07/19 08:11:51;;;;;;;5.95;4.50;;;22.70;99.90;;;;;;4973675;28;20027;-70
2021/07/19 08:14:17;;;;;;;9.68;4.60;;;23.00;99.90;;;;;;4972542;28;20043;-69
2021/07/19 08:16:42;;;;;;;10.32;4.32;;;23.20;99.90;;;;;;4965488;28;20034;-69
2021/07/19 08:19:10;;;;;;;5.68;4.07;;;23.30;99.90;;;;;;4954004;29;20058;-69
2021/07/19 08:21:37;;;;;;;9.00;4.40;;;23.50;99.90;;;;;;4953594;28;20030;-69
2021/07/19 08:24:04;;;;;;;7.60;4.15;;;23.60;99.90;;;;;;4953432;29;20023;-69
2021/07/19 08:26:30;;;;;;;8.23;4.93;;;23.80;99.90;;;;;;4952899;29;20027;-69
2021/07/19 08:28:56;;;;;;;5.63;4.13;;;23.70;99.90;;;;;;4953491;29;20034;-70
2021/07/19 08:31:24;;;;;;;5.30;3.78;;;23.60;99.90;;;;;;4953708;28;20035;-69
2021/07/19 08:33:49;;;;;;;7.38;4.28;;;23.50;99.90;;;;;;4953864;29;20320;-69
2021/07/19 08:36:15;;;;;;;4.30;3.75;;;24.00;99.90;;;;;;4953156;29;20102;-69
2021/07/19 08:38:41;;;;;;;3.97;3.63;;;24.20;99.90;;;;;;4954033;28;20027;-69
2021/07/19 08:41:07;;;;;;;5.00;3.83;;;24.20;99.90;;;;;;4972473;28;20022;-69
2021/07/19 08:43:35;;;;;;;6.22;3.58;;;24.40;99.90;;;;;;4973042;28;20381;-69
2021/07/19 08:46:01;;;;;;;6.95;3.75;;;24.40;99.90;;;;;;4972209;28;20025;-68
2021/07/19 08:48:28;;;;;;;11.68;5.93;;;24.60;99.90;;;;;;4972636;28;20100;-69
2021/07/19 08:50:54;;;;;;;26.70;5.65;;;24.60;99.90;;;;;;4972633;28;20525;-68
2021/07/19 08:53:19;;;;;;;6.53;3.47;;;25.10;99.90;;;;;;4991844;23;20046;-67
2021/07/19 08:55:49;;;;;;;3.85;3.47;;;25.50;99.90;;;;;;4977340;28;20038;-68
2021/07/19 08:58:16;;;;;;;7.43;4.35;;;25.50;99.90;;;;;;4972482;28;20034;-68
2021/07/19 09:00:42;;;;;;;7.68;3.65;;;25.70;99.90;;;;;;4974737;28;20025;-69
2021/07/19 09:03:09;;;;;;;3.80;3.40;;;25.40;99.90;;;;;;4967008;28;20149;-69
2021/07/19 09:05:36;;;;;;;6.60;3.40;;;25.20;99.90;;;;;;4960665;28;20029;-68
2021/07/19 09:08:05;;;;;;;3.50;3.08;;;25.50;99.90;;;;;;4971826;28;20034;-68
2021/07/19 09:10:30;;;;;;;4.28;3.20;;;26.10;99.90;;;;;;4971617;28;20025;-70
2021/07/19 09:12:59;;;;;;;4.05;3.35;;;27.40;99.90;;;;;;4972337;28;20089;-70
2021/07/19 09:15:31;;;;;;;3.28;2.88;;;28.30;99.90;;;;;;4971582;28;20031;-69
2021/07/19 09:17:58;;;;;;;4.88;3.42;;;28.50;99.90;;;;;;4972533;28;20388;-68
2021/07/19 09:20:39;;;;;;;5.03;3.20;;;28.20;99.90;;;;;;4950961;28;20042;-67
2021/07/19 09:23:08;;;;;;;5.47;2.97;;;29.20;99.90;;;;;;4978342;28;20110;-69
2021/07/19 09:25:33;;;;;;;3.30;2.95;;;29.00;99.90;;;;;;4976709;28;20033;-67
2021/07/19 09:28:04;;;;;;;4.55;2.63;;;27.90;99.90;;;;;;4978056;28;20098;-68
2021/07/19 09:30:33;;;;;;;2.90;2.58;;;27.50;99.90;;;;;;4996780;28;20073;-68
2021/07/19 09:33:03;;;;;;;8.63;3.60;;;26.90;99.90;;;;;;4995651;28;20427;-68
2021/07/19 09:35:31;;;;;;;3.95;2.90;;;26.90;99.90;;;;;;4994599;28;20034;-68
2021/07/19 09:38:06;;;;;;;3.85;3.22;;;26.70;99.90;;;;;;4995403;28;20026;-67
2021/07/19 09:40:34;;;;;;;4.25;3.10;;;26.70;99.90;;;;;;4994646;28;20026;-67
2021/07/19 09:43:00;;;;;;;4.85;3.25;;;28.30;99.90;;;;;;4995463;28;20026;-67
2021/07/19 09:45:31;;;;;;;7.55;2.80;;;28.90;99.90;;;;;;5006375;28;20077;-67
2021/07/19 09:48:01;;;;;;;2.90;2.60;;;29.20;99.90;;;;;;4982724;28;20393;-67
2021/07/19 09:50:50;;;;;;;4.57;2.80;;;30.10;99.90;;;;;;4975940;28;20624;-67
2021/07/19 09:53:37;;;;;;;5.50;2.70;;;30.00;99.90;;;;;;4973731;28;20043;-67
2021/07/19 09:56:12;;;;;;;6.65;2.58;;;30.80;99.90;;;;;;4969920;28;20033;-67
2021/07/19 09:58:42;;;;;;;5.80;2.80;;;31.30;98.00;;;;;;4975715;28;20081;-67
2021/07/19 10:01:10;;;;;;;3.90;2.50;;;30.10;99.20;;;;;;4974292;28;20412;-67
2021/07/19 10:03:36;;;;;;;3.90;3.03;;;31.80;97.00;;;;;;4975349;28;20031;-67
2021/07/19 10:06:06;;;;;;;3.45;2.50;;;32.70;97.00;;;;;;4974718;28;20019;-67
2021/07/19 10:08:33;;;;;;;6.68;3.13;;;32.00;95.40;;;;;;4975374;28;20478;-67
2021/07/19 10:10:59;;;;;;;3.95;2.80;;;30.50;96.90;;;;;;4975322;28;20113;-67
2021/07/19 10:13:33;;;;;;;3.08;2.78;;;29.50;98.20;;;;;;4975206;28;20031;-67
2021/07/19 10:16:00;;;;;;;2.72;2.53;;;28.50;98.90;;;;;;4974226;28;20034;-67
2021/07/19 10:18:30;;;;;;;8.60;3.15;;;28.50;99.90;;;;;;4974705;28;20034;-67
2021/07/19 10:20:56;;;;;;;5.88;2.85;;;28.90;99.30;;;;;;4974797;28;20512;-67
2021/07/19 10:23:21;;;;;;;9.10;2.92;;;29.60;98.70;;;;;;4974639;28;20035;-67
2021/07/19 10:25:47;;;;;;;3.10;2.70;;;30.10;96.20;;;;;;4974381;28;20516;-67
2021/07/19 10:28:14;;;;;;;4.25;2.90;;;30.60;97.30;;;;;;4973537;28;20140;-67
2021/07/19 10:30:41;;;;;;;3.78;2.88;;;30.80;96.60;;;;;;4974598;28;20070;-67
2021/07/19 10:33:07;;;;;;;5.88;2.65;;;30.60;95.90;;;;;;4974506;28;20433;-66
2021/07/19 10:35:33;;;;;;;5.95;3.78;;;30.70;97.90;;;;;;4974058;28;20026;-67
2021/07/19 10:38:08;;;;;;;6.55;2.78;;;31.40;96.50;;;;;;4974223;28;20090;-68
2021/07/19 10:40:38;;;;;;;6.05;3.00;;;30.80;94.90;;;;;;4973781;28;20031;-67
2021/07/19 10:43:08;;;;;;;5.65;3.30;;;30.70;96.50;;;;;;4974371;28;20083;-68
2021/07/19 10:45:45;;;;;;;9.35;3.60;;;30.50;96.70;;;;;;4974020;28;20118;-67
2021/07/19 10:48:26;;;;;;;6.32;3.30;;;30.80;96.60;;;;;;4974074;28;20058;-67
2021/07/19 10:50:54;;;;;;;4.28;2.95;;;30.10;96.30;;;;;;4974634;28;20110;-67
2021/07/19 10:53:21;;;;;;;4.97;3.35;;;30.40;96.70;;;;;;4956738;28;20116;-65
2021/07/19 10:56:08;;;;;;;3.95;3.35;;;30.10;96.30;;;;;;4974857;28;20026;-65
2021/07/19 10:58:39;;;;;;;3.80;3.47;;;30.10;97.20;;;;;;4974759;28;20027;-65
2021/07/19 11:01:05;;;;;;;4.10;3.30;;;29.90;98.20;;;;;;4974753;28;20027;-66
2021/07/19 11:03:41;;;;;;;4.75;3.03;;;29.60;99.00;;;;;;4975003;28;20355;-65
2021/07/19 11:06:07;;;;;;;3.78;3.47;;;30.00;98.60;;;;;;4979673;28;20027;-67
2021/07/19 11:08:33;;;;;;;5.75;3.30;;;30.70;97.40;;;;;;4980233;28;20023;-66
2021/07/19 11:10:59;;;;;;;8.23;3.50;;;30.70;96.20;;;;;;4982057;28;20085;-66
2021/07/19 11:13:30;;;;;;;6.22;2.72;;;30.70;96.70;;;;;;4980965;28;20042;-66
2021/07/19 11:15:55;;;;;;;3.42;3.13;;;31.20;96.70;;;;;;4980692;28;20034;-66
2021/07/19 11:18:26;;;;;;;3.75;3.38;;;31.00;95.00;;;;;;4979104;28;20091;-65
2021/07/19 11:20:53;;;;;;;6.53;3.70;;;31.20;94.80;;;;;;4974507;28;20034;-66
2021/07/19 11:23:34;;;;;;;6.20;3.22;;;31.00;95.70;;;;;;4973880;28;20408;-66
2021/07/19 11:26:06;;;;;;;3.60;3.00;;;30.50;95.50;;;;;;4973271;28;20034;-65
2021/07/19 11:28:42;;;;;;;;;;;31.20;95.00;;;;;;4973974;28;20062;-66
2021/07/19 11:31:25;;;;;;;3.65;3.33;;;31.90;94.50;;;;;;4973758;28;19949;-67
2021/07/19 11:34:00;;;;;;;4.65;3.28;;;32.20;93.20;;;;;;4973714;28;20061;-67
2021/07/19 11:36:29;;;;;;;3.90;2.95;;;30.90;94.80;;;;;;4958010;28;20497;-67
2021/07/19 11:38:57;;;;;;;3.22;2.92;;;31.10;94.40;;;;;;4977615;28;20027;-67
2021/07/19 11:41:28;;;;;;;5.80;2.95;;;30.50;94.50;;;;;;4973683;28;20662;-67
2021/07/19 11:43:56;;;;;;;3.42;3.10;;;30.30;96.50;;;;;;4973380;28;20042;-67
2021/07/19 11:46:34;;;;;;;4.63;3.10;;;30.20;96.90;;;;;;4972117;28;20046;-67
2021/07/19 11:49:12;;;;;;;22.85;4.60;;;29.60;95.80;;;;;;4972604;28;20426;-66
2021/07/19 11:51:45;;;;;;;9.95;3.47;;;28.90;95.90;;;;;;4972852;28;20532;-74
2021/07/19 11:54:12;;;;;;;7.00;2.95;;;28.90;97.60;;;;;;4974565;28;20034;-68
2021/07/19 11:56:50;;;;;;;6.72;3.28;;;29.10;96.20;;;;;;4972995;28;20397;-68
2021/07/19 11:59:20;;;;;;;4.30;2.95;;;29.00;95.50;;;;;;4972096;28;20043;-66
2021/07/19 12:01:53;;;;;;;3.00;2.80;;;29.50;95.90;;;;;;4953428;28;20027;-67
2021/07/19 12:04:21;;;;;;;12.68;3.70;;;29.80;94.00;;;;;;4952995;29;20019;-66
2021/07/19 12:06:51;;;;;;;7.20;2.97;;;30.30;96.00;;;;;;4954074;29;20027;-66
2021/07/19 12:09:17;;;;;;;6.10;2.75;;;31.10;94.70;;;;;;4953822;29;20094;-66
2021/07/19 12:11:52;;;;;;;11.48;3.03;;;31.40;93.50;;;;;;4953451;29;20035;-67
2021/07/19 12:14:18;;;;;;;3.75;2.55;;;31.00;93.10;;;;;;4953516;29;20038;-67
2021/07/19 12:16:43;;;;;;;3.40;2.72;;;31.20;91.70;;;;;;4953521;29;20031;-66
2021/07/19 12:19:15;;;;;;;24.90;3.90;;;31.60;93.70;;;;;;4954004;29;20034;-67
2021/07/19 12:21:44;;;;;;;3.42;2.85;;;31.50;93.20;;;;;;4954265;29;20544;-67
2021/07/19 12:24:12;;;;;;;3.28;2.70;;;31.30;92.60;;;;;;4953948;29;20528;-67
2021/07/19 12:26:50;;;;;;;4.28;2.45;;;30.90;92.00;;;;;;4953664;29;20546;-66
2021/07/19 12:29:18;;;;;;;7.93;2.50;;;31.60;91.40;;;;;;4954269;29;20103;-67
2021/07/19 12:31:43;;;;;;;2.83;2.55;;;32.10;89.90;;;;;;4953669;28;20027;-66
2021/07/19 12:34:15;;;;;;;3.90;2.42;;;31.80;90.30;;;;;;4953627;29;20102;-66
2021/07/19 12:36:45;;;;;;;;;;;31.00;90.60;;;;;;4953401;29;20565;-66
2021/07/19 12:39:16;;;;;;;4.65;2.53;;;30.50;92.00;;;;;;4953725;29;19910;-66
2021/07/19 12:41:45;;;;;;;2.67;2.38;;;29.80;92.20;;;;;;4954152;29;20074;-67